Time;durP1;ratioP1;P1;durP2;ratioP2;P2;SDS_P1;SDS_P2;PMS_P1;PMS_P2;Temp;Humidity;BMP_temperature;BMP_pressure;BME280_temperature;BME280_humidity;BME280_pressure;Samples;Min_cycle;Max_cycle;Signal;HPM_P1;HPM_P2
2022/03/05 00:00:49;;;;;;;23.60;9.18;;;;;;;;;;5042225;28;20058;-80
2022/03/05 00:03:16;;;;;;;26.73;9.23;;;;;;;;;;5039116;28;20149;-80
2022/03/05 00:05:43;;;;;;;25.88;9.95;;;;;;;;;;5039870;28;20084;-80
2022/03/05 00:08:09;;;;;;;29.98;10.13;;;;;;;;;;5028482;28;20500;-80
2022/03/05 00:10:36;;;;;;;29.05;9.70;;;;;;;;;;5042372;28;20058;-80
2022/03/05 00:13:03;;;;;;;26.10;9.45;;;;;;;;;;5041018;28;20950;-79
2022/03/05 00:15:29;;;;;;;24.85;10.00;;;;;;;;;;5049445;28;20692;-80
2022/03/05 00:17:56;;;;;;;23.38;9.50;;;;;;;;;;5040432;28;20057;-79
2022/03/05 00:20:23;;;;;;;26.95;10.65;;;;;;;;;;5047949;28;20061;-80
2022/03/05 00:22:52;;;;;;;23.83;9.38;;;;;;;;;;5046225;28;20512;-80
2022/03/05 00:25:19;;;;;;;24.73;9.90;;;;;;;;;;5046205;28;20165;-80
2022/03/05 00:27:46;;;;;;;24.77;9.73;;;;;;;;;;5031155;28;20525;-80
2022/03/05 00:30:12;;;;;;;25.35;10.10;;;;;;;;;;5046904;28;20096;-80
2022/03/05 00:32:38;;;;;;;23.80;9.15;;;;;;;;;;5048385;28;20108;-81
2022/03/05 00:35:05;;;;;;;23.67;9.93;;;;;;;;;;5045589;28;20573;-80
2022/03/05 00:37:32;;;;;;;22.65;9.05;;;;;;;;;;5030761;28;21386;-80
2022/03/05 00:39:58;;;;;;;27.17;9.73;;;;;;;;;;5044817;28;20057;-80
2022/03/05 00:42:25;;;;;;;23.58;9.75;;;;;;;;;;5039140;28;20050;-80
2022/03/05 00:44:51;;;;;;;23.25;9.57;;;;;;;;;;5050730;28;20053;-80
2022/03/05 00:47:19;;;;;;;25.40;9.13;;;;;;;;;;5052416;28;20630;-81
2022/03/05 00:49:45;;;;;;;26.20;9.85;;;;;;;;;;5050727;28;20046;-81
2022/03/05 00:52:11;;;;;;;25.77;9.88;;;;;;;;;;5051500;28;20059;-80
2022/03/05 00:54:38;;;;;;;23.17;9.07;;;;;;;;;;5050683;28;20061;-80
2022/03/05 00:57:05;;;;;;;25.52;9.48;;;;;;;;;;5051283;28;20045;-80
2022/03/05 00:59:31;;;;;;;24.52;10.02;;;;;;;;;;5050729;28;20058;-80
2022/03/05 01:01:58;;;;;;;29.65;9.93;;;;;;;;;;5031393;28;20049;-80
2022/03/05 01:04:24;;;;;;;27.33;9.65;;;;;;;;;;5032611;28;20526;-80
2022/03/05 01:06:51;;;;;;;25.10;9.48;;;;;;;;;;5049421;28;20111;-80
2022/03/05 01:09:17;;;;;;;22.48;9.20;;;;;;;;;;5046448;28;20563;-80
2022/03/05 01:11:43;;;;;;;24.98;9.60;;;;;;;;;;5039092;28;20108;-80
2022/03/05 01:14:10;;;;;;;24.48;9.40;;;;;;;;;;5045592;28;20084;-80
2022/03/05 01:16:37;;;;;;;23.55;9.43;;;;;;;;;;5049786;28;20057;-80
2022/03/05 01:19:03;;;;;;;25.77;9.25;;;;;;;;;;5066732;28;20495;-80
2022/03/05 01:21:29;;;;;;;25.23;10.00;;;;;;;;;;5046129;28;20058;-80
2022/03/05 01:23:56;;;;;;;24.25;8.95;;;;;;;;;;5038821;28;20053;-80
2022/03/05 01:26:23;;;;;;;26.02;10.18;;;;;;;;;;5051807;28;20053;-80
2022/03/05 01:28:49;;;;;;;22.70;9.43;;;;;;;;;;5049812;28;20057;-80
2022/03/05 01:31:15;;;;;;;26.02;10.50;;;;;;;;;;5048923;28;20578;-81
2022/03/05 01:33:42;;;;;;;27.92;10.05;;;;;;;;;;5048476;28;20064;-79
2022/03/05 01:36:08;;;;;;;25.45;11.02;;;;;;;;;;5049098;28;20120;-80
2022/03/05 01:38:35;;;;;;;28.38;9.98;;;;;;;;;;5042678;28;20108;-80
2022/03/05 01:41:01;;;;;;;25.63;9.98;;;;;;;;;;5033759;28;20847;-80
2022/03/05 01:43:27;;;;;;;27.85;9.63;;;;;;;;;;5047808;28;20970;-80
2022/03/05 01:45:54;;;;;;;25.30;9.52;;;;;;;;;;5049581;28;20076;-80
2022/03/05 01:48:20;;;;;;;23.55;9.50;;;;;;;;;;5050973;28;20038;-80
2022/03/05 01:50:47;;;;;;;26.10;9.60;;;;;;;;;;5034734;28;20483;-80
2022/03/05 01:53:13;;;;;;;25.55;9.70;;;;;;;;;;5050147;28;20061;-80
2022/03/05 01:55:41;;;;;;;24.83;9.60;;;;;;;;;;5050527;28;20080;-80
2022/03/05 01:58:07;;;;;;;30.85;10.27;;;;;;;;;;5050125;28;20054;-80
2022/03/05 02:00:34;;;;;;;28.15;10.45;;;;;;;;;;5064976;28;20037;-80
2022/03/05 02:03:00;;;;;;;29.88;10.23;;;;;;;;;;5044491;28;20065;-80
2022/03/05 02:05:27;;;;;;;23.77;9.90;;;;;;;;;;5039582;28;20069;-80
2022/03/05 02:07:54;;;;;;;25.40;9.50;;;;;;;;;;5031125;28;20235;-80
2022/03/05 02:10:21;;;;;;;27.10;9.70;;;;;;;;;;5048566;28;20045;-80
2022/03/05 02:12:47;;;;;;;25.58;9.35;;;;;;;;;;5045227;28;20050;-80
2022/03/05 02:15:14;;;;;;;28.48;10.48;;;;;;;;;;5030847;28;20054;-81
2022/03/05 02:17:40;;;;;;;25.95;9.73;;;;;;;;;;5046041;28;20054;-80
2022/03/05 02:20:07;;;;;;;26.65;10.35;;;;;;;;;;5064515;28;20053;-80
2022/03/05 02:22:34;;;;;;;26.60;9.85;;;;;;;;;;5045822;28;20104;-80
2022/03/05 02:25:02;;;;;;;29.13;11.45;;;;;;;;;;5047755;28;20077;-80
2022/03/05 02:27:29;;;;;;;31.50;10.68;;;;;;;;;;5046247;28;20049;-80
2022/03/05 02:29:56;;;;;;;24.98;9.38;;;;;;;;;;5045246;28;20107;-80
2022/03/05 02:32:23;;;;;;;26.60;10.32;;;;;;;;;;5041746;28;20057;-80
2022/03/05 02:34:50;;;;;;;26.23;10.23;;;;;;;;;;5044842;28;20091;-79
2022/03/05 02:37:16;;;;;;;28.73;10.57;;;;;;;;;;5047585;28;20538;-80
2022/03/05 02:39:43;;;;;;;27.85;10.35;;;;;;;;;;5040116;28;20119;-79
2022/03/05 02:42:10;;;;;;;30.42;11.48;;;;;;;;;;5064346;28;20155;-80
2022/03/05 02:44:36;;;;;;;26.20;10.50;;;;;;;;;;5037580;28;20140;-80
2022/03/05 02:47:04;;;;;;;29.83;10.00;;;;;;;;;;5027792;28;20114;-80
2022/03/05 02:49:30;;;;;;;30.42;12.00;;;;;;;;;;5035547;28;20107;-80
2022/03/05 02:51:57;;;;;;;26.50;10.70;;;;;;;;;;5048334;28;20212;-80
2022/03/05 02:54:24;;;;;;;26.92;10.30;;;;;;;;;;5048491;28;20123;-80
2022/03/05 02:56:50;;;;;;;28.00;10.73;;;;;;;;;;5047324;28;20108;-80
2022/03/05 02:59:17;;;;;;;26.48;10.38;;;;;;;;;;5046623;28;20053;-79
2022/03/05 03:01:43;;;;;;;31.27;10.93;;;;;;;;;;5037506;28;20046;-79
2022/03/05 03:04:10;;;;;;;29.30;10.75;;;;;;;;;;5032500;28;20064;-80
2022/03/05 03:06:36;;;;;;;27.95;10.65;;;;;;;;;;5027456;28;20050;-81
2022/03/05 03:09:03;;;;;;;23.92;10.77;;;;;;;;;;5045096;28;20049;-80
2022/03/05 03:11:29;;;;;;;33.10;11.43;;;;;;;;;;5047069;28;20053;-80
2022/03/05 03:13:56;;;;;;;28.35;10.45;;;;;;;;;;5046778;28;20064;-79
2022/03/05 03:16:22;;;;;;;26.45;9.52;;;;;;;;;;5046644;28;20053;-79
2022/03/05 03:18:48;;;;;;;31.17;10.90;;;;;;;;;;5063158;28;20057;-80
2022/03/05 03:21:15;;;;;;;32.58;10.77;;;;;;;;;;5047259;28;20112;-79
2022/03/05 03:23:41;;;;;;;31.25;10.93;;;;;;;;;;5046645;28;20472;-80
2022/03/05 03:26:08;;;;;;;28.33;10.43;;;;;;;;;;5047229;28;20053;-80
2022/03/05 03:28:34;;;;;;;32.47;10.95;;;;;;;;;;5046371;28;20535;-80
2022/03/05 03:31:00;;;;;;;33.08;11.73;;;;;;;;;;5044690;28;20085;-79
2022/03/05 03:33:27;;;;;;;30.70;11.57;;;;;;;;;;5047250;28;20053;-80
2022/03/05 03:35:54;;;;;;;29.63;10.93;;;;;;;;;;5031512;28;20096;-79
2022/03/05 03:38:20;;;;;;;34.92;11.40;;;;;;;;;;5048019;28;20053;-80
2022/03/05 03:40:46;;;;;;;33.78;11.05;;;;;;;;;;5045842;28;20105;-80
2022/03/05 03:43:13;;;;;;;30.58;11.68;;;;;;;;;;5046910;28;20138;-79
2022/03/05 03:45:39;;;;;;;32.75;11.27;;;;;;;;;;5032554;28;21037;-80
2022/03/05 03:48:05;;;;;;;33.17;11.40;;;;;;;;;;5028328;28;20785;-80
2022/03/05 03:50:32;;;;;;;30.88;11.27;;;;;;;;;;5043536;28;20062;-79
2022/03/05 03:52:58;;;;;;;31.92;11.07;;;;;;;;;;5037747;28;20085;-79
2022/03/05 03:55:25;;;;;;;27.92;11.02;;;;;;;;;;5027414;28;20058;-79
2022/03/05 03:57:51;;;;;;;34.00;12.32;;;;;;;;;;5028519;28;20116;-80
2022/03/05 04:00:18;;;;;;;30.75;11.10;;;;;;;;;;5048198;28;20131;-80
2022/03/05 04:02:45;;;;;;;31.65;11.00;;;;;;;;;;5046944;28;20479;-79
2022/03/05 04:05:12;;;;;;;33.00;10.93;;;;;;;;;;5061193;28;20069;-80
2022/03/05 04:10:23;;;;;;;32.25;11.10;;;;;;;;;;5061971;28;20057;-80
2022/03/05 04:12:50;;;;;;;29.58;11.23;;;;;;;;;;5049835;28;20108;-80
2022/03/05 04:15:17;;;;;;;32.58;11.77;;;;;;;;;;5042779;28;20508;-79
2022/03/05 04:17:44;;;;;;;30.13;10.68;;;;;;;;;;5039661;28;20175;-80
2022/03/05 04:20:11;;;;;;;37.22;11.23;;;;;;;;;;5049992;28;20104;-80
2022/03/05 04:22:37;;;;;;;38.78;12.10;;;;;;;;;;5053334;28;20046;-79
2022/03/05 04:25:04;;;;;;;28.58;11.15;;;;;;;;;;5050641;28;20072;-79
2022/03/05 04:27:30;;;;;;;33.50;12.30;;;;;;;;;;5053901;28;20069;-80
2022/03/05 04:29:56;;;;;;;28.77;10.52;;;;;;;;;;5047223;28;20057;-80
2022/03/05 04:32:23;;;;;;;30.23;10.60;;;;;;;;;;5053166;28;20115;-80
2022/03/05 04:34:49;;;;;;;32.55;11.32;;;;;;;;;;5051276;28;20053;-80
2022/03/05 04:37:16;;;;;;;35.13;11.18;;;;;;;;;;5052996;28;20053;-79
2022/03/05 04:39:42;;;;;;;37.67;12.10;;;;;;;;;;5043727;28;20054;-79
2022/03/05 04:42:09;;;;;;;31.23;10.98;;;;;;;;;;5031046;28;20058;-80
2022/03/05 04:44:35;;;;;;;35.80;12.02;;;;;;;;;;5033440;28;20061;-80
2022/03/05 04:47:03;;;;;;;34.00;12.30;;;;;;;;;;5031647;28;20042;-80
2022/03/05 04:49:29;;;;;;;31.45;11.27;;;;;;;;;;5035048;28;20061;-79
2022/03/05 04:51:55;;;;;;;31.65;10.75;;;;;;;;;;5031695;28;20058;-80
2022/03/05 04:54:24;;;;;;;35.92;12.07;;;;;;;;;;5037117;28;20050;-79
2022/03/05 04:56:50;;;;;;;32.38;11.63;;;;;;;;;;5045060;28;20509;-79
2022/03/05 04:59:16;;;;;;;34.83;12.65;;;;;;;;;;5037979;28;20103;-80
2022/03/05 05:01:43;;;;;;;33.20;10.82;;;;;;;;;;5052245;28;20132;-80
2022/03/05 05:04:09;;;;;;;31.77;10.93;;;;;;;;;;5048989;28;20059;-79
2022/03/05 05:06:36;;;;;;;40.38;12.95;;;;;;;;;;5048155;28;20050;-79
2022/03/05 05:09:02;;;;;;;36.28;12.00;;;;;;;;;;5050876;28;20550;-79
2022/03/05 05:11:29;;;;;;;36.63;11.30;;;;;;;;;;5050646;28;20057;-79
2022/03/05 05:13:55;;;;;;;34.60;13.25;;;;;;;;;;5038442;28;20058;-79
2022/03/05 05:16:22;;;;;;;34.97;12.10;;;;;;;;;;5034388;28;20542;-79
2022/03/05 05:21:33;;;;;;;33.92;11.82;;;;;;;;;;5052151;28;20049;-79
2022/03/05 05:24:00;;;;;;;29.65;11.60;;;;;;;;;;5046305;28;20448;-78
2022/03/05 05:26:26;;;;;;;32.50;11.25;;;;;;;;;;5050240;28;20049;-78
2022/03/05 05:28:52;;;;;;;34.33;11.73;;;;;;;;;;5051454;28;20502;-79
2022/03/05 05:31:19;;;;;;;29.77;11.80;;;;;;;;;;5050638;28;20103;-79
2022/03/05 05:33:48;;;;;;;36.00;12.45;;;;;;;;;;5040844;28;20042;-79
2022/03/05 05:36:15;;;;;;;33.60;12.20;;;;;;;;;;5047383;28;20122;-78
2022/03/05 05:38:41;;;;;;;34.92;12.20;;;;;;;;;;5042286;28;20520;-79
2022/03/05 05:41:08;;;;;;;37.38;12.20;;;;;;;;;;5044864;28;20135;-79
2022/03/05 05:43:35;;;;;;;33.22;12.93;;;;;;;;;;5051850;28;20618;-79
2022/03/05 05:46:01;;;;;;;38.70;11.52;;;;;;;;;;5049526;28;20108;-78
2022/03/05 05:48:48;;;;;;;35.88;12.27;;;;;;;;;;5044491;28;20117;-79
2022/03/05 05:51:14;;;;;;;41.58;13.88;;;;;;;;;;5050870;28;20065;-79
2022/03/05 05:53:40;;;;;;;37.22;12.68;;;;;;;;;;5039971;28;20061;-79
2022/03/05 05:56:07;;;;;;;33.60;13.23;;;;;;;;;;5030615;28;20054;-79
2022/03/05 05:58:33;;;;;;;37.30;12.65;;;;;;;;;;5045478;28;20061;-79
2022/03/05 06:01:00;;;;;;;33.10;12.32;;;;;;;;;;5051109;28;20054;-79
2022/03/05 06:03:27;;;;;;;32.90;12.02;;;;;;;;;;5047281;28;20057;-79
2022/03/05 06:05:53;;;;;;;41.58;13.35;;;;;;;;;;5050953;28;20053;-79
2022/03/05 06:08:20;;;;;;;37.00;12.45;;;;;;;;;;5048135;28;20054;-79
2022/03/05 06:10:46;;;;;;;41.72;13.45;;;;;;;;;;5029971;28;20108;-79
2022/03/05 06:13:12;;;;;;;37.10;12.25;;;;;;;;;;5045984;28;20070;-79
2022/03/05 06:15:39;;;;;;;36.00;13.77;;;;;;;;;;5049369;28;20057;-79
2022/03/05 06:18:05;;;;;;;41.65;13.20;;;;;;;;;;5032472;28;20050;-79
2022/03/05 06:20:31;;;;;;;37.58;13.27;;;;;;;;;;5046511;28;20100;-79
2022/03/05 06:22:58;;;;;;;35.63;12.88;;;;;;;;;;5048283;28;20070;-79
2022/03/05 06:25:24;;;;;;;40.40;13.10;;;;;;;;;;5050094;28;20050;-79
2022/03/05 06:27:50;;;;;;;39.13;12.52;;;;;;;;;;5049774;28;20209;-80
2022/03/05 06:30:17;;;;;;;40.83;14.25;;;;;;;;;;5046175;28;20108;-79
2022/03/05 06:32:43;;;;;;;39.17;12.85;;;;;;;;;;5047690;28;20053;-79
2022/03/05 06:35:12;;;;;;;43.33;13.05;;;;;;;;;;5044778;28;20062;-79
2022/03/05 06:43:29;;;;;;;39.80;13.05;;;;;;;;;;5042277;28;20469;-79
2022/03/05 06:46:39;;;;;;;33.75;12.90;;;;;;;;;;4977672;28;20325;-79
2022/03/05 06:49:25;;;;;;;34.10;13.18;;;;;;;;;;5005224;28;20549;-81
2022/03/05 06:52:19;;;;;;;35.67;12.68;;;;;;;;;;4973015;28;20533;-79
2022/03/05 06:55:43;;;;;;;34.78;12.75;;;;;;;;;;4990078;28;20579;-82
2022/03/05 06:58:37;;;;;;;38.30;12.98;;;;;;;;;;4991104;28;20058;-79
2022/03/05 07:05:39;;;;;;;32.65;12.05;;;;;;;;;;4996307;28;20114;-79
2022/03/05 07:11:51;;;;;;;42.00;13.75;;;;;;;;;;5016568;28;20083;-79
2022/03/05 07:15:01;;;;;;;44.83;13.10;;;;;;;;;;5012278;28;20047;-79
2022/03/05 07:17:38;;;;;;;42.65;13.48;;;;;;;;;;5021762;28;20054;-81
2022/03/05 07:20:27;;;;;;;37.13;12.15;;;;;;;;;;5021121;28;20057;-79
2022/03/05 07:23:06;;;;;;;37.10;13.32;;;;;;;;;;5017883;28;20513;-80
2022/03/05 07:25:52;;;;;;;37.20;13.07;;;;;;;;;;5007935;28;20074;-80
2022/03/05 07:31:19;;;;;;;43.88;12.95;;;;;;;;;;5020708;28;20060;-80
2022/03/05 07:33:48;;;;;;;39.63;13.00;;;;;;;;;;5005846;28;20980;-80
2022/03/05 07:36:19;;;;;;;39.85;14.05;;;;;;;;;;5027037;28;20050;-80
2022/03/05 07:38:46;;;;;;;41.75;13.18;;;;;;;;;;5025996;28;20500;-79
2022/03/05 07:41:13;;;;;;;40.28;13.27;;;;;;;;;;5023873;28;20213;-79
2022/03/05 07:43:42;;;;;;;41.47;13.85;;;;;;;;;;5035580;28;20053;-80
2022/03/05 07:46:11;;;;;;;47.42;14.63;;;;;;;;;;5049723;28;20064;-80
2022/03/05 07:48:46;;;;;;;41.15;13.80;;;;;;;;;;5047015;28;20108;-79
2022/03/05 07:51:50;;;;;;;42.78;13.23;;;;;;;;;;5038451;28;20821;-79
2022/03/05 07:57:48;;;;;;;42.63;14.35;;;;;;;;;;5025902;28;20108;-80
2022/03/05 08:00:22;;;;;;;38.75;12.45;;;;;;;;;;5009031;28;20061;-80
2022/03/05 08:02:53;;;;;;;39.15;13.25;;;;;;;;;;5013505;28;20526;-80
2022/03/05 08:05:23;;;;;;;49.83;15.07;;;;;;;;;;5006310;28;20604;-80
2022/03/05 08:08:07;;;;;;;36.40;13.18;;;;;;;;;;4998820;28;20057;-80
2022/03/05 08:10:49;;;;;;;45.80;15.25;;;;;;;;;;5026623;28;20042;-80
2022/03/05 08:13:23;;;;;;;42.22;14.93;;;;;;;;;;5023912;28;20540;-80
2022/03/05 08:15:53;;;;;;;41.55;14.88;;;;;;;;;;5036045;28;20690;-80
2022/03/05 08:18:20;;;;;;;44.83;15.63;;;;;;;;;;5029447;28;20112;-80
2022/03/05 08:20:47;;;;;;;40.80;13.82;;;;;;;;;;5029040;28;20078;-80
2022/03/05 08:23:14;;;;;;;43.95;15.68;;;;;;;;;;5046620;28;20507;-80
2022/03/05 08:25:40;;;;;;;41.63;14.40;;;;;;;;;;5044998;28;20120;-81
2022/03/05 08:28:17;;;;;;;39.30;13.48;;;;;;;;;;5036012;28;20507;-81
2022/03/05 08:31:43;;;;;;;37.42;13.85;;;;;;;;;;5009755;28;20048;-81
2022/03/05 08:35:00;;;;;;;43.80;14.80;;;;;;;;;;5026754;28;20466;-81
2022/03/05 08:37:30;;;;;;;36.38;13.48;;;;;;;;;;5029913;28;20057;-82
2022/03/05 08:40:05;;;;;;;43.65;14.57;;;;;;;;;;5049146;28;20103;-81
2022/03/05 08:42:48;;;;;;;43.80;14.73;;;;;;;;;;5045667;28;20069;-84
2022/03/05 08:45:18;;;;;;;42.08;14.52;;;;;;;;;;5043755;28;20137;-80
2022/03/05 08:47:45;;;;;;;37.30;13.75;;;;;;;;;;5035591;28;20065;-80
2022/03/05 08:50:11;;;;;;;40.25;14.35;;;;;;;;;;5051720;28;20072;-80
2022/03/05 08:52:38;;;;;;;40.60;13.00;;;;;;;;;;5051184;28;20053;-82
2022/03/05 08:55:09;;;;;;;39.95;14.50;;;;;;;;;;5051386;28;20057;-80
2022/03/05 08:57:36;;;;;;;36.58;14.77;;;;;;;;;;5043295;28;20057;-80
2022/03/05 09:00:05;;;;;;;38.47;14.40;;;;;;;;;;5042053;28;20053;-80
2022/03/05 09:02:31;;;;;;;37.88;15.05;;;;;;;;;;5040902;28;20057;-80
2022/03/05 09:04:58;;;;;;;40.05;14.80;;;;;;;;;;5056268;28;20080;-81
2022/03/05 09:07:27;;;;;;;38.88;15.38;;;;;;;;;;5053534;28;20057;-80
2022/03/05 09:09:54;;;;;;;40.30;13.80;;;;;;;;;;5036042;28;20104;-82
2022/03/05 09:12:20;;;;;;;40.85;15.48;;;;;;;;;;5039033;28;20042;-81
2022/03/05 09:14:48;;;;;;;35.28;13.57;;;;;;;;;;5039114;28;20038;-81
2022/03/05 09:17:15;;;;;;;35.63;13.93;;;;;;;;;;5049497;28;20064;-80
2022/03/05 09:19:42;;;;;;;43.60;14.55;;;;;;;;;;5066678;28;20045;-81
2022/03/05 09:22:18;;;;;;;38.78;14.35;;;;;;;;;;5048735;28;20096;-80
2022/03/05 09:24:45;;;;;;;40.60;14.23;;;;;;;;;;5048619;28;20053;-81
2022/03/05 09:27:11;;;;;;;44.63;15.50;;;;;;;;;;5041930;28;20062;-81
2022/03/05 09:29:37;;;;;;;39.45;14.65;;;;;;;;;;5033562;28;20065;-81
2022/03/05 09:32:05;;;;;;;34.72;13.52;;;;;;;;;;5045312;28;20061;-80
2022/03/05 09:34:31;;;;;;;38.75;14.77;;;;;;;;;;5039684;28;20152;-80
2022/03/05 09:36:58;;;;;;;35.88;14.45;;;;;;;;;;5043089;28;20041;-81
2022/03/05 09:39:24;;;;;;;35.65;14.07;;;;;;;;;;5045710;28;20061;-81
2022/03/05 09:41:51;;;;;;;46.58;15.25;;;;;;;;;;5049926;28;20089;-80
2022/03/05 09:44:18;;;;;;;37.25;14.93;;;;;;;;;;5056840;28;20137;-81
2022/03/05 09:46:47;;;;;;;39.45;15.60;;;;;;;;;;5050660;28;20064;-80
2022/03/05 09:49:14;;;;;;;38.45;15.10;;;;;;;;;;5051178;28;20111;-81
2022/03/05 09:51:40;;;;;;;36.63;14.63;;;;;;;;;;5062796;28;20542;-81
2022/03/05 09:54:06;;;;;;;40.17;15.45;;;;;;;;;;5031710;28;20045;-80
2022/03/05 09:56:33;;;;;;;35.72;14.85;;;;;;;;;;5055029;28;20065;-80
2022/03/05 09:58:59;;;;;;;37.92;14.45;;;;;;;;;;5048306;28;20042;-79
2022/03/05 10:01:26;;;;;;;39.88;14.43;;;;;;;;;;5051398;28;20050;-79
2022/03/05 10:03:55;;;;;;;30.98;13.43;;;;;;;;;;5047658;28;20061;-80
2022/03/05 10:06:23;;;;;;;38.88;14.77;;;;;;;;;;5028392;28;20054;-80
2022/03/05 10:08:52;;;;;;;40.08;15.48;;;;;;;;;;5040049;28;20103;-81
2022/03/05 10:11:19;;;;;;;38.67;15.27;;;;;;;;;;5044921;28;20061;-80
2022/03/05 10:13:46;;;;;;;46.08;17.63;;;;;;;;;;5040318;28;20053;-80
2022/03/05 10:16:24;;;;;;;44.50;17.83;;;;;;;;;;5036637;28;20108;-80
2022/03/05 10:18:51;;;;;;;40.92;17.33;;;;;;;;;;5035394;28;20612;-81
2022/03/05 10:21:17;;;;;;;39.05;16.30;;;;;;;;;;5032023;28;20057;-82
2022/03/05 10:23:47;;;;;;;36.25;14.68;;;;;;;;;;5043737;28;20049;-80
2022/03/05 10:26:21;;;;;;;35.90;16.05;;;;;;;;;;5036867;28;20048;-80
2022/03/05 10:28:47;;;;;;;37.72;15.45;;;;;;;;;;5044895;28;20058;-80
2022/03/05 10:31:14;;;;;;;41.42;16.13;;;;;;;;;;5057058;28;20910;-80
2022/03/05 10:33:40;;;;;;;40.60;15.95;;;;;;;;;;5047550;28;20499;-81
2022/03/05 10:36:08;;;;;;;39.70;16.17;;;;;;;;;;5034710;28;20112;-82
2022/03/05 10:38:41;;;;;;;37.90;16.48;;;;;;;;;;5046759;28;20077;-82
2022/03/05 10:41:07;;;;;;;39.42;17.60;;;;;;;;;;5043505;28;20038;-80
2022/03/05 10:43:34;;;;;;;39.63;17.40;;;;;;;;;;5041107;28;20049;-80
2022/03/05 10:46:00;;;;;;;44.28;16.77;;;;;;;;;;5039098;28;20867;-79
2022/03/05 10:48:31;;;;;;;43.05;16.55;;;;;;;;;;5038856;28;20149;-80
2022/03/05 10:50:59;;;;;;;35.15;16.02;;;;;;;;;;5046167;28;20054;-80
2022/03/05 10:53:44;;;;;;;42.65;17.38;;;;;;;;;;5038532;28;20136;-80
2022/03/05 10:56:43;;;;;;;40.70;16.75;;;;;;;;;;5045036;28;20570;-81
2022/03/05 10:59:10;;;;;;;37.53;15.50;;;;;;;;;;5030399;28;20105;-81
2022/03/05 11:01:38;;;;;;;42.40;16.38;;;;;;;;;;5041778;28;20508;-80
2022/03/05 11:04:09;;;;;;;34.65;15.18;;;;;;;;;;5046116;28;20053;-80
2022/03/05 11:06:40;;;;;;;37.97;16.25;;;;;;;;;;5043301;28;20787;-81
2022/03/05 11:09:06;;;;;;;;;;;;;;;;;;5045135;28;20524;-80
2022/03/05 11:11:35;;;;;;;40.50;16.58;;;;;;;;;;5053502;28;45791;-81
2022/03/05 11:14:02;;;;;;;37.60;15.13;;;;;;;;;;5035302;28;20049;-81
2022/03/05 11:16:29;;;;;;;39.78;16.10;;;;;;;;;;5041912;28;20061;-80
2022/03/05 11:18:56;;;;;;;38.38;16.08;;;;;;;;;;5042243;28;20049;-80
2022/03/05 11:21:25;;;;;;;39.53;16.25;;;;;;;;;;5046126;28;20130;-80
2022/03/05 11:23:51;;;;;;;36.38;16.15;;;;;;;;;;5036230;28;20058;-80
2022/03/05 11:26:18;;;;;;;36.58;15.90;;;;;;;;;;5038467;28;20061;-81
2022/03/05 11:28:45;;;;;;;38.85;16.80;;;;;;;;;;5045994;28;20129;-80
2022/03/05 11:31:17;;;;;;;42.90;17.65;;;;;;;;;;5046902;28;20062;-81
2022/03/05 11:33:44;;;;;;;39.80;16.35;;;;;;;;;;5043141;28;20486;-81
2022/03/05 11:36:25;;;;;;;36.20;16.65;;;;;;;;;;5044196;28;20570;-80
2022/03/05 11:39:06;;;;;;;32.90;15.70;;;;;;;;;;5033061;28;20054;-81
2022/03/05 11:41:46;;;;;;;35.28;16.45;;;;;;;;;;5044097;28;20053;-80
2022/03/05 11:44:13;;;;;;;37.20;15.15;;;;;;;;;;5047085;28;20155;-80
2022/03/05 11:46:39;;;;;;;36.67;15.68;;;;;;;;;;5046447;28;20092;-81
2022/03/05 11:49:07;;;;;;;37.97;16.45;;;;;;;;;;5048396;28;20057;-81
2022/03/05 11:51:46;;;;;;;37.70;16.70;;;;;;;;;;5046086;28;20054;-81
2022/03/05 11:54:13;;;;;;;42.60;16.90;;;;;;;;;;5036271;28;20097;-81
2022/03/05 11:57:13;;;;;;;37.63;16.85;;;;;;;;;;5027471;28;20054;-80
2022/03/05 11:59:40;;;;;;;31.73;14.98;;;;;;;;;;5039617;28;20056;-80
2022/03/05 12:02:07;;;;;;;38.95;16.83;;;;;;;;;;5047031;28;20065;-80
2022/03/05 12:04:43;;;;;;;49.38;16.48;;;;;;;;;;5047062;28;20061;-81
2022/03/05 12:07:13;;;;;;;35.78;16.60;;;;;;;;;;5030499;28;20109;-81
2022/03/05 12:09:43;;;;;;;38.00;16.35;;;;;;;;;;5027397;28;20057;-81
2022/03/05 12:12:20;;;;;;;38.50;17.58;;;;;;;;;;5031460;28;20066;-81
2022/03/05 12:14:55;;;;;;;37.13;16.85;;;;;;;;;;5045756;28;20046;-81
2022/03/05 12:17:48;;;;;;;35.95;15.30;;;;;;;;;;5045845;28;20163;-81
2022/03/05 12:20:16;;;;;;;40.38;17.40;;;;;;;;;;5037811;28;20050;-81
2022/03/05 12:22:50;;;;;;;38.90;16.83;;;;;;;;;;5044721;28;20104;-81
2022/03/05 12:25:20;;;;;;;35.13;16.88;;;;;;;;;;5035568;28;21140;-81
2022/03/05 12:27:47;;;;;;;38.72;17.58;;;;;;;;;;5049078;28;20566;-81
2022/03/05 12:30:20;;;;;;;36.00;17.05;;;;;;;;;;5045624;28;20141;-80
2022/03/05 12:32:47;;;;;;;37.80;17.42;;;;;;;;;;5031463;28;20050;-81
2022/03/05 12:35:15;;;;;;;38.95;17.63;;;;;;;;;;5031603;28;20050;-81
2022/03/05 12:37:44;;;;;;;36.97;17.20;;;;;;;;;;5035716;28;20926;-81
2022/03/05 12:40:11;;;;;;;37.08;17.00;;;;;;;;;;5043746;28;20752;-81
2022/03/05 12:42:39;;;;;;;36.88;18.30;;;;;;;;;;5040238;28;20057;-81
2022/03/05 12:45:05;;;;;;;39.47;18.27;;;;;;;;;;5044901;28;20112;-81
2022/03/05 12:47:33;;;;;;;36.78;18.00;;;;;;;;;;5044657;28;20057;-81
2022/03/05 12:50:18;;;;;;;35.95;17.40;;;;;;;;;;5044684;28;20905;-82
2022/03/05 12:52:54;;;;;;;41.17;16.92;;;;;;;;;;5038750;28;20627;-80
2022/03/05 12:55:21;;;;;;;35.28;16.00;;;;;;;;;;5043641;28;20116;-81
2022/03/05 12:57:47;;;;;;;39.67;17.75;;;;;;;;;;5036371;28;20100;-81
2022/03/05 13:00:18;;;;;;;33.17;16.13;;;;;;;;;;5048434;28;20222;-81
2022/03/05 13:02:45;;;;;;;37.75;17.80;;;;;;;;;;5038613;28;20096;-81
2022/03/05 13:05:15;;;;;;;40.33;17.40;;;;;;;;;;5049263;28;20112;-81
2022/03/05 13:07:41;;;;;;;37.20;17.13;;;;;;;;;;5048566;28;20236;-81
2022/03/05 13:10:08;;;;;;;35.33;16.60;;;;;;;;;;5037046;28;20057;-81
2022/03/05 13:12:36;;;;;;;35.50;16.95;;;;;;;;;;5057008;28;20515;-81
2022/03/05 13:15:03;;;;;;;38.95;16.90;;;;;;;;;;5044094;28;20056;-81
2022/03/05 13:17:29;;;;;;;37.05;17.73;;;;;;;;;;5050065;28;20054;-81
2022/03/05 13:19:56;;;;;;;37.38;17.75;;;;;;;;;;5042185;28;20057;-81
2022/03/05 13:22:26;;;;;;;35.35;16.63;;;;;;;;;;5047349;28;20046;-80
2022/03/05 13:24:52;;;;;;;37.08;16.55;;;;;;;;;;5046517;28;20092;-82
2022/03/05 13:27:26;;;;;;;42.95;17.50;;;;;;;;;;5045547;28;20053;-81
2022/03/05 13:29:52;;;;;;;33.92;16.73;;;;;;;;;;5048301;28;20041;-81
2022/03/05 13:32:19;;;;;;;37.08;16.65;;;;;;;;;;5041078;28;20132;-81
2022/03/05 13:34:46;;;;;;;34.42;16.70;;;;;;;;;;5048466;28;20748;-81
2022/03/05 13:37:12;;;;;;;35.67;16.02;;;;;;;;;;5036217;28;20113;-81
2022/03/05 13:39:38;;;;;;;37.08;16.23;;;;;;;;;;5037892;28;20057;-81
2022/03/05 13:42:12;;;;;;;33.00;16.58;;;;;;;;;;5043814;28;20916;-81
2022/03/05 13:44:39;;;;;;;36.45;16.73;;;;;;;;;;5043842;28;20104;-81
2022/03/05 13:47:07;;;;;;;39.90;17.92;;;;;;;;;;5045381;28;20060;-81
2022/03/05 13:49:34;;;;;;;36.40;18.13;;;;;;;;;;5029370;28;20058;-81
2022/03/05 13:52:02;;;;;;;37.60;17.08;;;;;;;;;;5035393;28;20504;-81
2022/03/05 13:54:34;;;;;;;35.40;17.75;;;;;;;;;;5031268;28;20054;-81
2022/03/05 13:57:01;;;;;;;35.88;17.00;;;;;;;;;;5040983;28;20053;-81
2022/03/05 13:59:35;;;;;;;38.05;18.02;;;;;;;;;;5039517;28;20088;-81
2022/03/05 14:02:01;;;;;;;39.08;18.55;;;;;;;;;;5047370;28;20041;-81
2022/03/05 14:04:28;;;;;;;35.50;17.88;;;;;;;;;;5038035;28;20105;-81
2022/03/05 14:06:59;;;;;;;31.73;16.17;;;;;;;;;;5049410;28;20061;-81
2022/03/05 14:09:29;;;;;;;35.53;17.23;;;;;;;;;;5037179;28;20065;-81
2022/03/05 14:12:04;;;;;;;32.70;16.63;;;;;;;;;;5057622;28;20982;-81
2022/03/05 14:14:34;;;;;;;31.65;15.95;;;;;;;;;;5044827;28;20145;-81
2022/03/05 14:17:00;;;;;;;36.78;17.05;;;;;;;;;;5049737;28;20076;-81
2022/03/05 14:19:28;;;;;;;39.67;17.58;;;;;;;;;;5050566;28;20057;-81
2022/03/05 14:22:08;;;;;;;32.78;16.00;;;;;;;;;;5041007;28;20484;-82
2022/03/05 14:24:34;;;;;;;35.23;16.93;;;;;;;;;;5032939;28;20534;-81
2022/03/05 14:27:08;;;;;;;35.90;17.00;;;;;;;;;;5053083;28;20335;-80
2022/03/05 14:29:34;;;;;;;41.08;16.50;;;;;;;;;;5048076;28;20045;-81
2022/03/05 14:32:01;;;;;;;37.03;15.90;;;;;;;;;;5045805;28;20119;-81
2022/03/05 14:34:27;;;;;;;35.97;16.73;;;;;;;;;;5047034;28;20053;-81
2022/03/05 14:36:53;;;;;;;36.38;16.25;;;;;;;;;;5047687;28;20069;-81
2022/03/05 14:39:25;;;;;;;34.50;16.45;;;;;;;;;;5044892;28;20053;-81
2022/03/05 14:41:51;;;;;;;36.55;15.60;;;;;;;;;;5048979;28;20111;-81
2022/03/05 14:44:17;;;;;;;34.30;16.45;;;;;;;;;;5048438;28;20054;-81
2022/03/05 14:46:44;;;;;;;38.13;17.65;;;;;;;;;;5050398;28;20055;-80
2022/03/05 14:49:11;;;;;;;33.92;16.67;;;;;;;;;;5046631;28;20103;-81
2022/03/05 14:51:37;;;;;;;37.20;16.30;;;;;;;;;;5037375;28;20092;-81
2022/03/05 14:54:06;;;;;;;33.88;15.50;;;;;;;;;;5035566;28;20057;-81
2022/03/05 14:56:32;;;;;;;35.50;16.27;;;;;;;;;;5048263;28;20590;-81